Results by/Résultats par Info:[email protected] Phone: (613)260-0994

                                    K-TOWN TRIATHLON
                    
                                 Sunday July 31st, 2005

                         Confederation Park, Kingston, Ontario

                        Overall Results - Long Course Triathlon

  -----FINAL----- ----------------------- ------------ ------------------- -----          2 km                       56.5 km                   15 km
                                                       Category                   ------SWIM + T1-------    ----------BIKE--------    -------RUN + T2-------- -------
    Pos     Time  Name                    City         Plc/Total Category     #    Cat  Ovr  Time  /100m     Cat Ovr Time  km/hr      Cat  Ovr  Time     km   Penalty
  ------  ------- ----------------------- ------------ ------------------- -----  ----------------------    ----------------------    ----------------------- -------
    1     2:54:11 Jamie HATT              Staples      1/2   Elite Men      38    1      3   29:07  1:28    1      1 1:25:41  39.6     1      4   59:24  3:58         
    2     2:59:17 Tony OKEEFFE            Kingston     1/19  M40 - 44        1    2      7   29:30  1:29    2     10 1:31:07  37.2     1      2   58:41  3:55         
    3     2:59:18 Ian WILSON              Peterborou   1/25  M45 - 49      152    2      9   30:13  1:31    1      6 1:30:24  37.5     1      3   58:42  3:55         
    4     3:00:23 Ryan GRANT              Gatineau     1/14  M30 - 34      124    1      8   29:46  1:30    2      3 1:28:29  38.3     1      7 1:02:10  4:09         
    5     3:01:29 Allan FAULDS            Frankford    1/17  M35 - 39        2    1     16   31:57  1:36    3     15 1:32:28  36.7     1      1   57:05  3:49         
    6     3:02:03 David CLINKARD          Kingston     1/6   M20 - 24       70    1      5   29:12  1:28    1      9 1:30:57  37.3     1      5 1:01:55  4:08         
    7     3:03:50 Rob MCCULLOCH           Ottawa       2/19  M40 - 44      105    3     12   30:38  1:32    1      5 1:30:15  37.6     3      9 1:02:57  4:12         
    8     3:05:52 Oliver MOUYAU           Belgium      2/14  M30 - 34      183    2     22   32:44  1:39    1      2 1:28:26  38.3     3     14 1:04:42  4:19         
    9     3:08:35 Stephen CANN            Kanata       1/12  M25 - 29      146    1      4   29:09  1:28    2     13 1:31:51  36.9     5     26 1:07:36  4:31         
   10     3:10:10 Paul MONROE             Wolfe isla   2/25  M45 - 49       90    7     36   34:09  1:43    4     16 1:32:51  36.5     2     11 1:03:11  4:13         
   11     3:11:13 Susanne RUSSELL         Ottawa       1/1   Elite Women   153    1      6   29:14  1:28    1     30 1:35:43  35.4     1     18 1:06:18  4:26         
   12     3:11:26 Jean-Pierre THIBAULT    Kingston     2/12  M25 - 29      150    6     71   38:38  1:56    1      7 1:30:44  37.4     1      6 1:02:05  4:09         
   13     3:12:22 John BOFFIN             Mississaug   3/19  M40 - 44       58    5     19   32:29  1:38    4     20 1:34:03  36.0     5     17 1:05:51  4:24         
   14     3:12:45 Marty RAYMOND           Cumberland   4/19  M40 - 44        3    1      1   27:28  1:23    7     45 1:39:33  34.1     4     16 1:05:45  4:23         
   15     3:13:15 Ryan BLAKE              Barrie       3/12  M25 - 29      179    2     18   32:21  1:38    4     24 1:34:32  35.9     2     19 1:06:23  4:26         
   16     3:13:32 Clive MORGAN            Yarker       3/25  M45 - 49       23    1      2   28:02  1:25    7     25 1:34:36  35.8     7     42 1:10:55  4:44         
   17     3:14:01 Douglas BLADES          Brampton     2/17  M35 - 39      171    8     54   36:47  1:51    1      4 1:30:11  37.6     3     24 1:07:05  4:29         
   18     3:14:16 Aron WEIR               Guelph       3/14  M30 - 34      141    6     42   35:07  1:46    4     26 1:34:49  35.8     2     12 1:04:20  4:18         
   19     3:14:39 Stephen HINTON          Kingston     4/25  M45 - 49       29    6     28   33:18  1:40    5     17 1:33:31  36.3     4     29 1:07:51  4:32         
   20     3:16:37 Jane HOWE               Kingston     1/9   W35 - 39      101    1     17   32:08  1:37    1     38 1:37:28  34.8     2     23 1:07:02  4:29         
   21     3:17:02 Stephen SCOTT           Kingston     5/19  M40 - 44       55    6     20   32:35  1:38    11    59 1:41:33  33.4     2      8 1:02:55  4:12         
   22     3:18:48 Jean BLAIN              Ottawa       5/25  M45 - 49       48    10    60   37:18  1:52    6     19 1:34:02  36.1     3     25 1:07:30  4:30         
   23     3:18:49 John ZAHAB              Ottawa       3/17  M35 - 39       19    7     52   36:31  1:50    2     14 1:32:16  36.7     6     38 1:10:03  4:41         
   24     3:18:54 Kevin PENNY             Ottawa       6/25  M45 - 49       43    4     13   30:39  1:32    9     40 1:38:02  34.6     6     39 1:10:14  4:41         
   25     3:19:00 Justus DERX             Syracuse     6/19  M40 - 44       60    9     47   35:37  1:47    5     27 1:34:49  35.8     9     34 1:08:35  4:35         
   26     3:19:42 Mike MYERS              Belleville   4/17  M35 - 39       46    5     40   34:37  1:44    10    44 1:39:33  34.1     2     15 1:05:32  4:23         
   27     3:19:54 Gilbert AYOUB           Montreal     7/25  M45 - 49      160    15    88   39:50  2:00    3     11 1:31:48  36.9     5     31 1:08:17  4:34         
   28     3:20:37 Pierre c GENEREUX       Gatineau     8/25  M45 - 49      136    5     21   32:43  1:39    8     33 1:35:57  35.3     8     47 1:11:58  4:48         
   29     3:20:51 Keith THOMPSON          Poplar gro   2/2   Elite Men      40    2    113   43:10  2:10    2     23 1:34:30  35.9     2     10 1:03:11  4:13         
   30     3:20:58 Adrian BLENKINSOP       Ottawa       4/12  M25 - 29       88    7     72   38:46  1:57    5     31 1:35:43  35.4     3     20 1:06:30  4:26         
   31     3:21:02 Joel KYER               Kingston     5/12  M25 - 29       33    5     46   35:26  1:47    3     21 1:34:05  36.0     7     45 1:11:32  4:47         
   32     3:21:06 Patrick TURLEY          Syracuse     7/19  M40 - 44       14    4     15   31:55  1:36    10    57 1:41:23  33.4     7     28 1:07:49  4:32         
   33     3:21:13 Billy SCHOENHARDT       King city    5/17  M35 - 39      106    3     32   33:26  1:41    5     29 1:35:19  35.6     7     50 1:12:29  4:50         
   34     3:22:54 Cheryl KEMP             Ottawa       2/9   W35 - 39       89    2     34   34:03  1:43    2     63 1:42:06  33.2     1     21 1:06:46  4:28         
   35     3:23:29 Matthew WEBSTER         Ogdensburg   2/6   M20 - 24      154    3     51   36:14  1:49    4     72 1:42:35  33.0     2     13 1:04:41  4:19         
   36     3:23:55 Eldon BROWN             Toronto      4/14  M30 - 34      132    8     67   37:57  1:54    3     18 1:34:00  36.1     5     48 1:11:59  4:48         
   37     3:24:06 Alex MUSZKA             London       8/19  M40 - 44       67    12    73   38:47  1:57    6     32 1:35:52  35.4     10    35 1:09:29  4:38         
   38     3:24:42 Veronic BEZAIRE         Kanata       1/3   W25 - 29      147    1     10   30:34  1:32    1     91 1:45:47  32.0     1     32 1:08:22  4:34         
   39     3:25:21 Gordon TIM              Newcastle    6/12  M25 - 29      117    4     35   34:05  1:43    8     51 1:40:39  33.7     6     41 1:10:38  4:43         
   40     3:25:53 Bruce ACKMAN            Medway       9/19  M40 - 44       45    7     23   33:00  1:39    8     54 1:41:13  33.5     11    46 1:11:42  4:47         
   41     3:26:38 Jim MALEKOS             Kingston     1/11  M50 - 54       24    2     25   33:07  1:40    1     34 1:36:18  35.2     4     74 1:17:13  5:09         
   42     3:28:17 Jamie YOUNG             Kingston     7/12  M25 - 29       39    11   109   42:54  2:09    7     43 1:38:28  34.4     4     22 1:06:56  4:28         
   43     3:29:03 Greg PHELAN             Kingston     6/17  M35 - 39      129    6     43   35:09  1:46    6     35 1:36:21  35.2     12    75 1:17:34  5:11         
   44     3:29:04 Cathy BODNOFF           Ottawa       1/7   W40 - 44       30    2     53   36:33  1:50    1     68 1:42:16  33.1     1     40 1:10:16  4:42         
   45     3:29:48 Chris THOMAS            Wolfe Isla   5/14  M30 - 34      112    10    96   40:57  2:03    5     28 1:35:09  35.6     6     54 1:13:43  4:55         
   46 CLY 3:30:21 Terry JENNINGS          Ottawa      10/19  M40 - 44       21    15    84   39:29  1:59    3     12 1:31:50  36.9     17    87 1:19:02  5:17         
   47     3:30:38 Glen CARADUS            Peterborou   7/17  M35 - 39       83    9     55   36:49  1:51    16    89 1:45:44  32.1     4     30 1:08:06  4:33         
   48 CLY 3:31:06 David BRUCE             Kingston     8/17  M35 - 39       41    2     26   33:08  1:40    13    60 1:41:34  33.4     10    70 1:16:25  5:06         
   49     3:31:08 Joe BALDOCK             Kingston     8/12  M25 - 29      178    9     98   41:11  2:04    6     39 1:37:56  34.6     8     49 1:12:01  4:49         
   50     3:31:35 Steve MURPHY            Newmarket   11/19  M40 - 44       15    11    64   37:40  1:53    14    85 1:45:28  32.1     8     33 1:08:28  4:34         
   51     3:31:45 Juergen DINGEL          Kingston     9/17  M35 - 39      157    14   116   43:25  2:11    9     42 1:38:21  34.5     5     37 1:10:01  4:40         
   52     3:31:57 Iain ASPENLIEDER        Ottawa       9/12  M25 - 29      145    3     30   33:21  1:41    10    81 1:45:08  32.2     9     53 1:13:29  4:54         
   53     3:33:06 Ralph WERNER            Ottawa      12/19  M40 - 44      130    13    75   38:59  1:57    19    96 1:46:27  31.8     6     27 1:07:41  4:31         
   54     3:33:23 Stuart JONES            Kingston    13/19  M40 - 44      102    8     27   33:15  1:40    9     56 1:41:22  33.4     16    84 1:18:47  5:16         
   55     3:33:34 David BENWELL           Santa Moni   9/25  M45 - 49      126    12    70   38:34  1:56    12    53 1:40:56  33.6     9     56 1:14:05  4:57         
   56     3:33:42 David COLEGROVE         Syracuse    10/17  M35 - 39      181    12    87   39:43  2:00    4     22 1:34:06  36.0     13    90 1:19:55  5:20         
   57     3:34:31 Grant THOMPSON          Orleans     10/25  M45 - 49      128    8     38   34:21  1:44    14    71 1:42:27  33.1     11    76 1:17:44  5:11         
   58     3:34:53 Claire GRASTY           Ottawa       1/11  W30 - 34      166    2     45   35:24  1:47    1     78 1:44:29  32.4     1     61 1:15:01  5:00         
   59     3:34:57 Tom SIMPER              Ottawa       2/11  M50 - 54       93    1     24   33:05  1:40    5     94 1:46:11  31.9     2     66 1:15:42  5:03         
   60     3:35:50 Sean MCNULTY            Mississaug  11/17  M35 - 39       75    15   125   44:35  2:14    7     36 1:36:44  35.0     8     58 1:14:32  4:59         
   61     3:35:54 Joanne MILLER           Oakville     2/7   W40 - 44       80    1     31   33:25  1:41    4    101 1:46:59  31.7     2     64 1:15:31  5:03         
   62     3:36:15 Karen DESAULNIERS       Gatineau     1/4   W20 - 24       31    2     68   38:01  1:55    2     77 1:44:22  32.5     1     55 1:13:53  4:56         
   63     3:37:02 Douglas WOLF            Owego       14/19  M40 - 44       62    14    80   39:19  1:58    12    64 1:42:07  33.2     12    65 1:15:36  5:03         
   64     3:37:05 Ed BRAND                Kingston     1/7   M55 - 59       87    3     83   39:26  1:59    3     98 1:46:44  31.8     1     43 1:10:56  4:44         
   65     3:37:32 Seth BREWER             Canton       3/6   M20 - 24       65    5     69   38:06  1:55    3     66 1:42:15  33.2     4     63 1:15:12  5:01    2:00 
   66     3:38:28 Philippe DASS           Orleans      4/6   M20 - 24       20    4     65   37:48  1:54    2     62 1:42:02  33.2     5     82 1:18:39  5:15         
   67     3:38:33 Andr? LEGAULT           Ottawa      10/12  M25 - 29      149    10   103   42:24  2:08    9     61 1:41:59  33.2     10    57 1:14:12  4:57         
   68     3:38:49 Kimberlee GRAHAM-KNIGHT Kingston     2/4   W20 - 24       92    1     50   36:12  1:49    1     58 1:41:25  33.4     3     95 1:21:13  5:25         
   69     3:39:00 Steve BRADLEY           Casselman    2/7   M55 - 59      100    6    132   45:06  2:16    1     48 1:40:30  33.7     3     52 1:13:25  4:54         
   70     3:39:05 Carlos PEREZ            Ajax        11/25  M45 - 49       85    18   108   42:52  2:09    11    49 1:40:32  33.7     10    67 1:15:42  5:03         
   71     3:39:14 Peter MALON             Guelph       3/11  M50 - 54      158    3     76   39:04  1:58    4     67 1:42:15  33.2     5     77 1:17:56  5:12         
   72     3:39:34 Scott BENTLEY           Markham     12/17  M35 - 39      139    16   129   44:53  2:15    11    46 1:39:44  34.0     9     60 1:14:59  5:00         
   73     3:39:48 David TRUMPEY           Lake Placi   6/14  M30 - 34       54    7     63   37:35  1:53    12   102 1:47:25  31.6     7     59 1:14:48  5:00         
   74     3:39:57 Joe MCMASTER            Kingston    13/17  M35 - 39      164    13    97   41:03  2:04    8     37 1:37:11  34.9     14    99 1:21:44  5:27         
   75     3:40:17 Eric TRAVIS             Trenton      7/14  M30 - 34      168    3     29   33:20  1:40    8     75 1:43:23  32.8     10   107 1:23:36  5:35         
   76     3:41:35 David VIGNEAULT         St Valere    8/14  M30 - 34      180    11   104   42:26  2:08    13   104 1:48:09  31.3     4     44 1:11:00  4:44         
   77     3:42:22 Yves DECOSTE            Lyn         14/17  M35 - 39      118    4     33   33:40  1:41    12    47 1:40:27  33.7     16   121 1:28:16  5:54         
   78     3:42:44 John YENDT              Herndon     12/25  M45 - 49       36    22   134   45:18  2:16    10    41 1:38:04  34.6     13    88 1:19:23  5:18         
   79     3:42:52 Ian KOTT                Montreal    15/19  M40 - 44      175    16    92   40:10  2:01    16    90 1:45:46  32.1     13    73 1:16:57  5:08         
   80     3:43:17 Douglas BISHOP          Ottawa       3/7   M55 - 59      109    1     14   30:55  1:33    5    108 1:49:00  31.1     5    106 1:23:23  5:34         
   81     3:43:28 Brian LANSDOWNE         Belleville   4/7   M55 - 59        7    7    147   49:55  2:30    2     52 1:40:40  33.7     2     51 1:12:54  4:52         
   82     3:44:04 Gary ONEILL             Dollard-de  13/25  M45 - 49      148    9     41   35:03  1:46    18   105 1:48:32  31.2     14    91 1:20:30  5:22         
   83     3:44:04 Ken CORNELIUS           Oshawa      16/19  M40 - 44       12    10    57   37:06  1:52    13    84 1:45:23  32.2     18    98 1:21:36  5:27         
   84     3:44:31 Craig CAMPBELL          Odessa      15/17  M35 - 39        8    11    74   38:57  1:57    14    69 1:42:17  33.1     15   104 1:23:18  5:34         
   85     3:45:00 Christian BELAIR        Brampton     9/14  M30 - 34       82    14   140   45:55  2:18    7     74 1:43:16  32.8     8     68 1:15:50  5:04         
   86 CLY 3:46:04 Michael LESAGE          Nobleton    14/25  M45 - 49       50    19   110   42:57  2:09    16    80 1:44:38  32.4     12    81 1:18:30  5:14         
   87     3:46:11 Andrew GOSS             Ottawa      16/17  M35 - 39       10    17   135   45:26  2:17    15    76 1:44:19  32.5     11    71 1:16:27  5:06         
   88     3:46:15 Richard BOWES           Kanata       4/11  M50 - 54      138    9    150   50:35  2:32    2     50 1:40:37  33.7     1     62 1:15:03  5:01         
   89     3:46:50 Kyla SMITH              Kingston     2/11  W30 - 34      111    4     59   37:15  1:52    3    110 1:49:00  31.1     3     92 1:20:36  5:23         
   90     3:47:27 Jeremy BAIRD            Kingston     5/6   M20 - 24       25    2     49   36:00  1:48    6    141 2:01:29  27.9     3     36 1:09:59  4:40         
   91     3:47:31 Michael ANKERS          Denfield    10/14  M30 - 34       11    9     77   39:09  1:58    9     88 1:45:39  32.1     9    103 1:22:44  5:31         
   92     3:48:13 Chantal MERCIER         Ottawa       3/11  W30 - 34      103    9    105   42:36  2:08    2    109 1:49:00  31.1     2     72 1:16:38  5:07         
   93     3:49:08 Katherine GAUDREAU      Kingston     3/4   W20 - 24       61    4    118   43:32  2:11    3     97 1:46:44  31.8     2     85 1:18:53  5:16         
   94     3:49:32 Catharine CLARKE        Mountain     3/9   W35 - 39       28    4     89   40:01  2:01    4    107 1:48:54  31.1     5     93 1:20:38  5:23         
   95     3:49:40 Eric EMERY              Ottawa      17/19  M40 - 44      143    18   138   45:51  2:18    15    86 1:45:33  32.1     14    80 1:18:16  5:14         
   96     3:49:50 Gale QUIGLEY            Kingston     3/7   W40 - 44        4    4    115   43:18  2:10    2     82 1:45:12  32.2     3     96 1:21:21  5:26         
   97 CLY 3:51:01 Craig CRUTE             Scarb       15/25  M45 - 49       22    16    99   41:30  2:05    13    70 1:42:26  33.1     19   119 1:27:07  5:49         
   98     3:51:50 Kim MIROSLAVICH         Brampton     4/9   W35 - 39       69    3     81   39:20  1:58    7    123 1:54:28  29.6     3     78 1:18:03  5:13         
   99     3:51:55 Jim ELYOT               Kingston    16/25  M45 - 49      116    20   126   44:46  2:15    17    83 1:45:23  32.2     15   100 1:21:48  5:28         
  100     3:52:30 Mark ZIRBSER            Oakville    11/14  M30 - 34      137    4     37   34:17  1:43    6     73 1:42:36  33.0     14   138 1:35:37  6:23         
  101     3:52:35 Morris O'CALLAGHAN      Ottawa       5/7   M55 - 59       96    2     58   37:09  1:52    6    119 1:53:54  29.8     4     97 1:21:33  5:27         
  102     3:54:10 Dwight MCDOUGALL        Kanata       5/11  M50 - 54      167    4    101   42:16  2:07    3     55 1:41:18  33.5     8    125 1:30:37  6:03         
  103     3:55:06 Allan MACPHEE           Ottawa      18/19  M40 - 44       42    19   149   50:20  2:31    18    93 1:46:05  32.0     15    83 1:18:42  5:15         
  104 CLY 3:55:46 Bruce SINCLAIR          Westmount   19/19  M40 - 44      176    17   117   43:28  2:11    17    92 1:45:50  32.0     19   116 1:26:29  5:46         
  105     3:55:54 Kyran LUDDEN            Liverpool    5/9   W35 - 39       59    5     90   40:02  2:01    3     65 1:42:11  33.2     8    131 1:33:42  6:15         
  106     3:56:03 Larry AITKEN            Kingston    17/25  M45 - 49       79    13    82   39:21  1:59    15    79 1:44:31  32.4     20   126 1:32:13  6:09         
  107     3:56:27 Cathy CAMPANARO         Kingston     6/9   W35 - 39      107    8    127   44:51  2:15    5    115 1:52:02  30.3     4     89 1:19:35  5:19         
  108     3:56:46 Cuthbert CHEUNG         Belleville  18/25  M45 - 49       52    14    86   39:33  1:59    20   114 1:51:56  30.3     17   113 1:25:18  5:42         
  109     3:57:00 David ANDREW            Kingston     6/11  M50 - 54       32    8    145   48:05  2:25    6    117 1:52:56  30.0     3     69 1:15:59  5:04         
  110 CLY 3:57:20 Denis MOREL             Hartington  19/25  M45 - 49       34    21   130   44:59  2:15    19   111 1:49:52  30.9     16   101 1:22:30  5:30         
  111     3:57:44 Carol SINCLAIR          Stittsvill   1/5   W50 - 54      135    2    111   43:01  2:10    2    133 1:56:33  29.1     1     79 1:18:12  5:13         
  112 CLY 3:58:04 Dean EASTON             Kingston    12/14  M30 - 34      165    12   133   45:15  2:16    10    95 1:46:18  31.9     12   117 1:26:32  5:47         
  113     3:59:03 Tiia BISHOP             Ottawa       4/4   W20 - 24      108    3     93   40:15  2:01    4    126 1:55:30  29.4     4    105 1:23:19  5:34         
  114     3:59:26 Adam OLIVEIRA           Toronto     13/14  M30 - 34       63    13   136   45:44  2:18    11   100 1:46:50  31.7     13   118 1:26:53  5:48         
  115     4:00:26 Edward FINGLAND         Kingston    11/12  M25 - 29      163    8     91   40:08  2:01    11   103 1:47:50  31.4     11   127 1:32:29  6:10         
  116     4:01:40 Sean OBRIEN             Toronto     17/17  M35 - 39      156    10    61   37:31  1:53    17   127 1:55:38  29.3     17   122 1:28:32  5:55         
  117     4:03:01 Jen KELSO               London       4/7   W40 - 44       68    5    119   43:34  2:11    3     87 1:45:38  32.1     4    132 1:33:51  6:16         
  118     4:03:05 Tina TRAINI             Ottawa       2/3   W25 - 29      159    2     48   35:53  1:48    2    144 2:01:53  27.8     2    114 1:25:19  5:42         
  119     4:03:57 Mary Pat D'ANGELO       Lafayette    1/1   W55 - 59      182    1    121   43:42  2:12    1    129 1:56:04  29.2     1    109 1:24:12  5:37         
  120     4:04:54 Allison SEYMOUR         Ottawa       7/9   W35 - 39      174    6    112   43:03  2:10    6    118 1:53:45  29.8     6    120 1:28:07  5:53         
  121     4:05:17 Roger MILLS             Ottawa       6/7   M55 - 59        9    5    128   44:53  2:15    4     99 1:46:45  31.8     6    130 1:33:41  6:15         
  122     4:06:52 Rebecca ORR             Wolfe Isla   4/11  W30 - 34      110    10   106   42:45  2:09    7    138 1:59:14  28.4     4    111 1:24:54  5:40         
  123     4:08:45 Richard CAMERON         Kingston     7/11  M50 - 54       27    5    102   42:21  2:08    7    120 1:53:55  29.8     9    128 1:32:30  6:10         
  124     4:08:48 Debbie GORDON           Ottawa       5/11  W30 - 34      120    8     94   40:18  2:01    5    122 1:54:22  29.6     6    136 1:34:09  6:17         
  125     4:09:46 Nadia BUCCIERI          Aurora       6/11  W30 - 34       74    11   114   43:15  2:10    8    142 2:01:32  27.9     5    112 1:25:00  5:40         
  126     4:10:55 Jill RELYEA-VOSS        Kingston     2/5   W50 - 54       66    4    142   46:38  2:20    1    112 1:50:22  30.7     5    134 1:33:56  6:16         
  127     4:11:20 Arlene AYOUB            Montreal     1/1   W45 - 49      161    1    151   50:41  2:33    1    130 1:56:18  29.1     1    110 1:24:22  5:38         
  128     4:12:35 Steve WRIGHT            Kingston    14/14  M30 - 34      177    5     39   34:33  1:44    14   157 2:13:59  25.3     11   108 1:24:04  5:37         
  129     4:12:57 Graham DAVID            Kingston    20/25  M45 - 49       72    24   154   52:26  2:38    22   124 1:54:31  29.6     18   115 1:26:01  5:45         
  130 CLY 4:13:46 Tamara BALDWIN          Brockville   7/11  W30 - 34      119    7     85   39:32  1:59    4    113 1:51:27  30.4     8    147 1:42:48  6:52         
  131     4:13:54 Sue MCIVER              Kingston     8/9   W35 - 39       49    7    124   44:27  2:14    9    139 1:59:27  28.4     7    124 1:30:01  6:01         
  132     4:14:04 Beverley TYLER          Toronto      5/7   W40 - 44       64    3    107   42:49  2:09    5    106 1:48:50  31.1     7    146 1:42:25  6:50         
  133     4:16:45 Jonathan WYATT          Brockville   7/7   M55 - 59      133    4    120   43:38  2:11    7    137 1:59:14  28.4     7    133 1:33:55  6:16         
  134     4:16:50 Richard WALDOLF         Orleans      6/6   M20 - 24      114    6     78   39:13  1:58    5    121 1:54:04  29.7     6    148 1:43:33  6:55         
  135     4:17:48 Alexander BALABAN       Ottawa       8/11  M50 - 54       91    10   156   56:28  2:50    9    135 1:58:46  28.5     7    102 1:22:35  5:31         
  136     4:19:46 Laurent LEGAULT         Kingsport    9/11  M50 - 54       81    7    143   47:05  2:22    11   152 2:09:45  26.1     6     94 1:20:57  5:24    2:00 
  137     4:20:25 Marian MACKAY           Stittsvill   3/5   W50 - 54       44    3    141   46:17  2:19    4    149 2:05:31  27.0     3    123 1:28:39  5:55         
  138     4:20:41 Ross MADDAMS            Kingston    10/11  M50 - 54       47    6    139   45:54  2:18    10   136 1:59:06  28.5     11   139 1:35:41  6:23         
  139     4:22:37 Jocelyn LAVOIE          Nepean       8/11  W30 - 34      134    3     56   37:03  1:52    9    143 2:01:38  27.9     9    149 1:43:57  6:56         
  140     4:22:48 Susanne TRERISE         Moffat       4/5   W50 - 54      131    1     95   40:22  2:02    5    153 2:09:50  26.1     4    129 1:32:37  6:11         
  141     4:25:18 John RENNISON           Hamilton    21/25  M45 - 49      115    23   152   51:49  2:36    21   116 1:52:38  30.1     21   144 1:40:52  6:44         
  142     4:25:55 Phil PAYNE              Milton       1/2   M60 - 64      113    2    153   52:14  2:37    1    140 1:59:36  28.3     1    135 1:34:06  6:17         
  143 CLY 4:26:36 Lesley TAYLOR           Toronto      6/7   W40 - 44       57    6    122   43:44  2:12    6    150 2:07:08  26.7     5    140 1:35:45  6:23         
  144     4:28:46 Geoff PARKER            Ottawa      12/12  M25 - 29       37    12   137   45:46  2:18    12   146 2:02:25  27.7     12   143 1:40:36  6:43         
  145     4:29:08 Brian MCDOWELL          Barrie       2/2   M60 - 64        5    1    123   44:21  2:14    2    147 2:02:27  27.7     2    145 1:42:22  6:50         
  146     4:29:41 Lise PATTERSON          Ottawa       5/5   W50 - 54      142    5    158 1:05:54  3:18    3    148 2:04:55  27.1     2     86 1:18:53  5:16         
  147     4:30:35 Joanna WELBURN          Lachute      9/11  W30 - 34      173    6     79   39:16  1:58    10   155 2:12:23  25.6     7    142 1:38:57  6:36         
  148     4:31:53 Lori WILKINSON          Ottawa       9/9   W35 - 39       17    9    131   45:03  2:16    8    134 1:58:37  28.6     9    151 1:48:14  7:13         
  149 CLY 4:33:02 Douglas OWEN            Westport    22/25  M45 - 49      162    25   155   52:45  2:39    24   128 1:55:51  29.3     22   150 1:44:27  6:58         
  150     4:33:09 John C. HALL            Kingston    11/11  M50 - 54       77    11   157 1:02:18  3:07    8    131 1:56:27  29.1     10   137 1:34:25  6:18         
  151 CLY 4:37:42 Robert ELSON            Lefaivre    23/25  M45 - 49       13    17   100   41:43  2:06    23   125 1:54:45  29.5     23   155 2:01:15  8:05         
  152     4:38:53 Kathryn HANDFORD        Toronto      7/7   W40 - 44      140    7    148   50:08  2:31    7    154 2:10:21  26.0     6    141 1:38:25  6:34         
  153     4:40:28 Emily SPENCER           Kingston    10/11  W30 - 34      121    5     66   37:51  1:54    11   156 2:13:30  25.4     10   153 1:49:08  7:17         
  154 CLY 4:41:47 Sarah ESPIGARES         Toronto      3/3   W25 - 29       78    3    144   47:14  2:22    3    145 2:02:22  27.7     3    154 1:52:12  7:29         
  155     4:44:57 Robert MCCALDON         Hartington   1/1   M65 - 69      122    1    146   49:00  2:27    1    151 2:07:18  26.6     1    152 1:48:39  7:15         
  156     4:51:25 Andrew SPEEDY           Belleville  24/25  M45 - 49       53    11    62   37:33  1:53                               24                             
  157             Marc PELLETIER          Ottawa      25/25  M45 - 49       95    3     11   30:37  1:32    2      8 1:30:48  37.3                                    
  158             Tricia ROGERS           Toronto     11/11  W30 - 34      104    1     44   35:15  1:46    6    132 1:56:29  29.1